Time;durP1;ratioP1;P1;durP2;ratioP2;P2;SDS_P1;SDS_P2;PMS_P1;PMS_P2;Temp;Humidity;BMP_temperature;BMP_pressure;BME280_temperature;BME280_humidity;BME280_pressure;Samples;Min_cycle;Max_cycle;Signal;HPM_P1;HPM_P2
2024/01/17 00:00:04;;;;;;;12.82;4.43;;;-0.30;99.90;;;;;;5022337;28;20061;-71
2024/01/17 00:02:29;;;;;;;7.80;3.85;;;-0.30;99.90;;;;;;5011752;28;20647;-72
2024/01/17 00:04:55;;;;;;;12.13;3.65;;;-0.30;99.90;;;;;;5013333;28;20046;-72
2024/01/17 00:07:21;;;;;;;10.35;5.18;;;-0.30;99.90;;;;;;5014991;28;20042;-72
2024/01/17 00:09:49;;;;;;;12.07;5.40;;;-0.30;99.90;;;;;;5009450;28;20092;-72
2024/01/17 00:12:15;;;;;;;10.75;4.80;;;-0.30;99.90;;;;;;5010639;28;20064;-72
2024/01/17 00:14:41;;;;;;;10.25;4.05;;;-0.40;99.90;;;;;;5011128;28;20042;-72
2024/01/17 00:17:07;;;;;;;14.32;6.25;;;-0.40;99.90;;;;;;5013813;28;20056;-72
2024/01/17 00:19:32;;;;;;;13.57;4.95;;;-0.40;99.90;;;;;;5011403;28;20117;-72
2024/01/17 00:21:58;;;;;;;11.05;4.80;;;-0.50;99.90;;;;;;5016937;28;20033;-72
2024/01/17 00:24:24;;;;;;;13.30;4.35;;;-0.50;99.90;;;;;;5014189;28;20088;-73
2024/01/17 00:26:50;;;;;;;17.70;5.20;;;-0.50;99.90;;;;;;5020127;28;20041;-72
2024/01/17 00:29:18;;;;;;;17.50;5.82;;;-0.60;99.90;;;;;;5014219;28;20124;-72
2024/01/17 00:31:44;;;;;;;13.20;5.47;;;-0.50;99.90;;;;;;5013415;28;20034;-72
2024/01/17 00:34:10;;;;;;;13.80;4.57;;;-0.60;99.90;;;;;;5017524;28;20037;-72
2024/01/17 00:36:35;;;;;;;13.90;4.63;;;-0.60;99.90;;;;;;5018360;28;20044;-72
2024/01/17 00:39:01;;;;;;;10.82;5.15;;;-0.60;99.90;;;;;;5016334;28;20069;-72
2024/01/17 00:41:26;;;;;;;12.02;5.35;;;-0.60;99.90;;;;;;5018442;28;20034;-72
2024/01/17 00:43:52;;;;;;;11.85;5.15;;;-0.60;99.90;;;;;;5016885;28;20595;-71
2024/01/17 00:46:18;;;;;;;9.57;4.57;;;-0.60;99.90;;;;;;5013610;28;20041;-72
2024/01/17 00:48:44;;;;;;;12.70;5.07;;;-0.70;99.90;;;;;;5012274;28;20165;-71
2024/01/17 00:51:09;;;;;;;10.07;4.80;;;-0.70;99.90;;;;;;5008809;28;20040;-71
2024/01/17 00:53:35;;;;;;;14.13;4.70;;;-0.70;99.90;;;;;;5013869;28;20033;-72
2024/01/17 00:56:01;;;;;;;14.68;6.00;;;-0.80;99.90;;;;;;5010805;28;20030;-71
2024/01/17 00:58:27;;;;;;;10.40;5.35;;;-0.80;99.90;;;;;;5015692;28;20040;-73
2024/01/17 01:00:53;;;;;;;20.00;5.93;;;-0.80;99.90;;;;;;5011980;28;20041;-71
2024/01/17 01:03:19;;;;;;;16.10;5.97;;;-0.80;99.90;;;;;;5016341;28;20033;-73
2024/01/17 01:05:46;;;;;;;10.02;5.13;;;-0.90;99.90;;;;;;5017131;28;20034;-71
2024/01/17 01:08:12;;;;;;;14.90;5.25;;;-0.80;99.90;;;;;;5013725;28;20045;-72
2024/01/17 01:10:37;;;;;;;13.73;6.18;;;-0.90;99.90;;;;;;5013339;28;20048;-71
2024/01/17 01:13:03;;;;;;;11.70;5.15;;;-0.90;99.90;;;;;;5023076;28;20092;-71
2024/01/17 01:15:29;;;;;;;11.60;4.68;;;-0.90;99.90;;;;;;5010163;28;20037;-72
2024/01/17 01:17:54;;;;;;;10.90;5.13;;;-0.90;99.90;;;;;;5011217;28;20113;-71
2024/01/17 01:20:20;;;;;;;14.43;5.22;;;-0.90;99.90;;;;;;5013761;28;20030;-72
2024/01/17 01:22:46;;;;;;;12.45;4.78;;;-0.90;99.90;;;;;;5007261;28;20048;-71
2024/01/17 01:25:11;;;;;;;17.60;6.90;;;-1.00;99.90;;;;;;5016964;28;20034;-71
2024/01/17 01:27:37;;;;;;;15.13;4.97;;;-1.00;99.90;;;;;;5020243;28;20401;-72
2024/01/17 01:30:03;;;;;;;14.07;5.72;;;-1.00;99.90;;;;;;5006247;28;20497;-71
2024/01/17 01:32:29;;;;;;;24.05;7.50;;;-1.00;99.90;;;;;;5004512;28;20088;-72
2024/01/17 01:34:54;;;;;;;12.30;4.82;;;-1.00;99.90;;;;;;5008983;28;20402;-71
2024/01/17 01:37:20;;;;;;;14.52;5.95;;;-1.00;99.90;;;;;;5004110;28;20557;-72
2024/01/17 01:39:46;;;;;;;16.88;6.05;;;-1.10;99.90;;;;;;5002926;28;20042;-72
2024/01/17 01:42:11;;;;;;;11.73;4.93;;;-1.10;99.90;;;;;;5008656;28;20096;-72
2024/01/17 01:44:37;;;;;;;13.32;6.05;;;-1.10;99.90;;;;;;5006422;28;20029;-72
2024/01/17 01:47:03;;;;;;;9.88;4.65;;;-1.10;99.90;;;;;;5013360;28;20472;-72
2024/01/17 01:49:29;;;;;;;16.42;6.55;;;-1.10;99.90;;;;;;5003688;28;20087;-73
2024/01/17 01:51:54;;;;;;;10.57;5.15;;;-1.10;99.90;;;;;;5005014;28;20115;-72
2024/01/17 01:54:22;;;;;;;14.85;5.60;;;-1.00;99.90;;;;;;5004611;28;20788;-72
2024/01/17 01:56:49;;;;;;;16.58;6.10;;;-1.00;99.90;;;;;;5005082;28;20072;-72
2024/01/17 01:59:17;;;;;;;13.18;5.13;;;-1.10;99.90;;;;;;5004303;28;20045;-72
2024/01/17 02:01:42;;;;;;;13.63;5.43;;;-1.10;99.90;;;;;;5008279;28;20042;-72
2024/01/17 02:04:09;;;;;;;14.52;5.90;;;-1.10;99.90;;;;;;5004500;28;20022;-72
2024/01/17 02:06:38;;;;;;;11.30;5.30;;;-1.10;99.90;;;;;;5004399;28;20037;-72
2024/01/17 02:09:03;;;;;;;14.55;6.28;;;-1.10;99.90;;;;;;5012268;28;20034;-72
2024/01/17 02:11:29;;;;;;;14.77;5.22;;;-1.10;99.90;;;;;;5005928;28;20473;-72
2024/01/17 02:13:55;;;;;;;14.57;5.13;;;-1.10;99.90;;;;;;5008329;28;20494;-72
2024/01/17 02:16:23;;;;;;;18.23;6.55;;;-1.10;99.90;;;;;;5016797;28;20029;-72
2024/01/17 02:18:49;;;;;;;10.45;5.15;;;-1.10;99.90;;;;;;5013402;28;20049;-72
2024/01/17 02:21:16;;;;;;;17.15;5.68;;;-1.20;99.90;;;;;;5020156;28;20405;-72
2024/01/17 02:23:41;;;;;;;11.98;5.55;;;-1.20;99.90;;;;;;5019293;28;20030;-72
2024/01/17 02:26:07;;;;;;;17.58;5.53;;;-1.20;99.90;;;;;;5021411;28;20040;-72
2024/01/17 02:28:33;;;;;;;19.70;5.97;;;-1.20;99.90;;;;;;5021431;28;20449;-73
2024/01/17 02:30:59;;;;;;;18.20;6.70;;;-1.20;99.90;;;;;;5021747;28;20100;-72
2024/01/17 02:33:25;;;;;;;15.52;5.50;;;-1.20;99.90;;;;;;5015318;28;20037;-72
2024/01/17 02:35:50;;;;;;;11.57;5.18;;;-1.20;99.90;;;;;;5015000;28;20034;-72
2024/01/17 02:38:16;;;;;;;16.15;6.03;;;-1.20;99.90;;;;;;5020990;28;20030;-72
2024/01/17 02:40:42;;;;;;;17.00;5.10;;;-1.20;99.90;;;;;;5018821;28;20022;-72
2024/01/17 02:43:08;;;;;;;19.30;7.03;;;-1.20;99.90;;;;;;5019474;28;20609;-72
2024/01/17 02:45:33;;;;;;;14.02;5.57;;;-1.20;99.90;;;;;;5020095;28;20034;-73
2024/01/17 02:47:59;;;;;;;10.40;5.00;;;-1.20;99.90;;;;;;5018082;28;20033;-72
2024/01/17 02:50:26;;;;;;;11.48;4.65;;;-1.20;99.90;;;;;;5018293;28;20472;-72
2024/01/17 02:52:54;;;;;;;14.32;5.25;;;-1.20;99.90;;;;;;5018413;28;20375;-72
2024/01/17 02:55:20;;;;;;;14.68;5.80;;;-1.20;99.90;;;;;;5015419;28;20494;-72
2024/01/17 02:57:45;;;;;;;16.20;5.70;;;-1.10;99.90;;;;;;5015116;28;20065;-72
2024/01/17 03:00:11;;;;;;;17.45;5.03;;;-1.10;99.90;;;;;;5009355;28;20033;-72
2024/01/17 03:02:38;;;;;;;16.88;5.18;;;-1.10;99.90;;;;;;5013905;28;20128;-72
2024/01/17 03:05:05;;;;;;;9.60;4.80;;;-1.10;99.90;;;;;;5011438;28;20029;-72
2024/01/17 03:07:31;;;;;;;16.02;6.00;;;-1.10;99.90;;;;;;5022303;28;20097;-72
2024/01/17 03:09:56;;;;;;;12.90;5.57;;;-1.10;99.90;;;;;;5009019;28;20117;-72
2024/01/17 03:12:22;;;;;;;13.30;5.47;;;-1.00;99.90;;;;;;5010819;28;20037;-72
2024/01/17 03:14:48;;;;;;;15.93;6.43;;;-1.00;99.90;;;;;;5014927;28;20520;-72
2024/01/17 03:17:14;;;;;;;11.30;5.13;;;-1.00;99.90;;;;;;5010936;28;20038;-72
2024/01/17 03:19:40;;;;;;;13.20;5.07;;;-1.00;99.90;;;;;;5015492;28;20042;-72
2024/01/17 03:22:05;;;;;;;13.85;5.20;;;-1.00;99.90;;;;;;5012003;28;20599;-72
2024/01/17 03:24:31;;;;;;;13.32;5.57;;;-1.00;99.90;;;;;;5009137;28;20026;-72
2024/01/17 03:26:56;;;;;;;12.75;5.30;;;-1.00;99.90;;;;;;5016475;28;20033;-72
2024/01/17 03:29:22;;;;;;;13.07;5.63;;;-1.00;99.90;;;;;;5013819;28;20092;-72
2024/01/17 03:31:48;;;;;;;13.45;5.32;;;-1.00;99.90;;;;;;5015033;28;20036;-72
2024/01/17 03:34:14;;;;;;;14.98;5.88;;;-1.00;99.90;;;;;;5016806;28;20038;-72
2024/01/17 03:36:39;;;;;;;19.67;6.07;;;-1.10;99.90;;;;;;5011301;28;20088;-72
2024/01/17 03:39:06;;;;;;;13.90;6.10;;;-1.00;99.90;;;;;;5009810;28;20461;-72
2024/01/17 03:41:31;;;;;;;15.95;5.07;;;-1.00;99.90;;;;;;5010540;28;20034;-73
2024/01/17 03:43:58;;;;;;;15.32;4.95;;;-1.10;99.90;;;;;;5013650;28;20041;-72
2024/01/17 03:46:24;;;;;;;12.07;5.78;;;-1.10;99.90;;;;;;5010763;28;20037;-73
2024/01/17 03:48:50;;;;;;;12.40;5.80;;;-1.10;99.90;;;;;;5013430;28;20037;-72
2024/01/17 03:51:15;;;;;;;13.00;5.70;;;-1.20;99.90;;;;;;5010533;28;20038;-72
2024/01/17 03:53:41;;;;;;;16.92;5.28;;;-1.10;99.90;;;;;;5010712;28;20038;-72
2024/01/17 03:56:07;;;;;;;15.88;5.47;;;-1.10;99.90;;;;;;5018335;28;20033;-72
2024/01/17 03:58:32;;;;;;;20.48;5.57;;;-1.20;99.90;;;;;;5017926;28;20125;-73
2024/01/17 04:01:00;;;;;;;12.13;5.32;;;-1.20;99.90;;;;;;5018584;28;20025;-72
2024/01/17 04:03:26;;;;;;;11.65;4.47;;;-1.20;99.90;;;;;;5014604;28;20541;-73
2024/01/17 04:05:52;;;;;;;12.30;5.45;;;-1.20;99.90;;;;;;5015130;28;20160;-72
2024/01/17 04:08:17;;;;;;;10.07;4.97;;;-1.20;99.90;;;;;;5028475;28;20473;-72
2024/01/17 04:10:43;;;;;;;14.45;5.00;;;-1.20;99.90;;;;;;5017883;28;20135;-72
2024/01/17 04:13:08;;;;;;;16.00;5.50;;;-1.20;99.90;;;;;;5014246;28;20061;-72
2024/01/17 04:15:34;;;;;;;12.77;4.75;;;-1.30;99.90;;;;;;5014243;28;20045;-72
2024/01/17 04:18:00;;;;;;;9.45;4.82;;;-1.30;99.90;;;;;;5019375;28;20029;-72
2024/01/17 04:20:25;;;;;;;14.88;4.97;;;-1.30;99.90;;;;;;5008482;28;20501;-72
2024/01/17 04:22:51;;;;;;;8.95;4.30;;;-1.30;99.90;;;;;;5015657;28;20497;-72
2024/01/17 04:25:16;;;;;;;9.50;4.28;;;-1.30;99.90;;;;;;5010711;28;20034;-72
2024/01/17 04:27:42;;;;;;;9.20;4.63;;;-1.30;99.90;;;;;;5016576;28;20080;-72
2024/01/17 04:30:11;;;;;;;11.95;4.97;;;-1.30;99.90;;;;;;5010483;28;20046;-72
2024/01/17 04:32:37;;;;;;;10.02;4.82;;;-1.30;99.90;;;;;;5017521;28;20029;-72
2024/01/17 04:35:04;;;;;;;11.60;4.60;;;-1.40;99.90;;;;;;5014940;28;20069;-72
2024/01/17 04:37:30;;;;;;;10.38;4.45;;;-1.30;99.90;;;;;;5017272;28;20052;-72
2024/01/17 04:39:57;;;;;;;10.15;4.80;;;-1.30;99.90;;;;;;5014311;28;20037;-72
2024/01/17 04:42:22;;;;;;;14.20;5.72;;;-1.30;99.90;;;;;;5017900;28;20128;-72
2024/01/17 04:44:49;;;;;;;12.90;4.18;;;-1.30;99.90;;;;;;5016000;28;20117;-72
2024/01/17 04:47:15;;;;;;;15.50;4.55;;;-1.30;99.90;;;;;;5013288;28;20038;-72
2024/01/17 04:49:40;;;;;;;14.38;5.75;;;-1.40;99.90;;;;;;5015840;28;20033;-72
2024/01/17 04:52:06;;;;;;;12.93;4.63;;;-1.40;99.90;;;;;;5014664;28;20041;-72
2024/01/17 04:54:32;;;;;;;10.88;4.32;;;-1.40;99.90;;;;;;5014716;28;20025;-73
2024/01/17 04:56:58;;;;;;;8.88;4.20;;;-1.40;99.90;;;;;;5013023;28;20371;-72
2024/01/17 04:59:23;;;;;;;21.98;5.47;;;-1.40;99.90;;;;;;5015279;28;20107;-75
2024/01/17 05:01:49;;;;;;;10.85;4.43;;;-1.40;99.90;;;;;;5012396;28;20120;-72
2024/01/17 05:04:14;;;;;;;12.90;4.40;;;-1.40;99.90;;;;;;5013462;28;20057;-72
2024/01/17 05:06:40;;;;;;;13.75;4.40;;;-1.40;99.90;;;;;;5014101;28;20120;-71
2024/01/17 05:09:08;;;;;;;11.30;4.78;;;-1.40;99.90;;;;;;5015530;28;20042;-72
2024/01/17 05:11:34;;;;;;;15.73;4.07;;;-1.40;99.90;;;;;;5014806;28;20545;-72
2024/01/17 05:14:00;;;;;;;10.60;3.97;;;-1.40;99.90;;;;;;5012473;28;20068;-72
2024/01/17 05:16:26;;;;;;;16.00;4.45;;;-1.40;99.90;;;;;;5013048;28;20057;-72
2024/01/17 05:18:51;;;;;;;9.57;4.43;;;-1.40;99.90;;;;;;5018328;28;20047;-72
2024/01/17 05:21:17;;;;;;;10.27;4.95;;;-1.40;99.90;;;;;;5014361;28;20108;-72
2024/01/17 05:23:43;;;;;;;10.73;3.72;;;-1.40;99.90;;;;;;5014450;28;20046;-72
2024/01/17 05:26:09;;;;;;;8.48;4.07;;;-1.40;99.90;;;;;;5014713;28;20126;-72
2024/01/17 05:28:35;;;;;;;9.52;4.47;;;-1.40;99.90;;;;;;5021545;28;20030;-72
2024/01/17 05:31:01;;;;;;;10.40;4.07;;;-1.40;99.90;;;;;;5016222;28;20041;-72
2024/01/17 05:33:26;;;;;;;9.27;3.95;;;-1.40;99.90;;;;;;5016347;28;20037;-72
2024/01/17 05:35:52;;;;;;;7.63;3.53;;;-1.40;99.90;;;;;;5019980;28;20050;-72
2024/01/17 05:38:18;;;;;;;9.55;3.40;;;-1.30;99.90;;;;;;5015275;28;20036;-72
2024/01/17 05:40:43;;;;;;;10.35;4.03;;;-1.30;99.90;;;;;;5023995;28;20045;-72
2024/01/17 05:43:10;;;;;;;15.07;4.28;;;-1.30;99.90;;;;;;5014783;28;20041;-72
2024/01/17 05:45:35;;;;;;;13.55;4.00;;;-1.30;99.90;;;;;;5015074;28;20050;-72
2024/01/17 05:48:01;;;;;;;9.90;3.53;;;-1.30;99.90;;;;;;5016478;28;20493;-72
2024/01/17 05:50:27;;;;;;;12.05;4.28;;;-1.30;99.90;;;;;;5012293;28;20041;-72
2024/01/17 05:52:52;;;;;;;9.68;3.85;;;-1.30;99.90;;;;;;5018208;28;20030;-72
2024/01/17 05:55:20;;;;;;;10.52;3.88;;;-1.20;99.90;;;;;;5016533;28;20037;-72
2024/01/17 05:57:45;;;;;;;11.65;3.15;;;-1.20;99.90;;;;;;5016934;28;20485;-72
2024/01/17 06:00:13;;;;;;;11.65;3.67;;;-1.20;99.90;;;;;;5019273;28;20041;-72
2024/01/17 06:02:40;;;;;;;16.30;4.03;;;-1.30;99.90;;;;;;5019431;28;20490;-72
2024/01/17 06:05:07;;;;;;;12.07;3.25;;;-1.30;99.90;;;;;;5020509;28;20045;-72
2024/01/17 06:07:33;;;;;;;7.88;3.17;;;-1.30;99.90;;;;;;5020710;28;20083;-72
2024/01/17 06:09:59;;;;;;;11.32;3.40;;;-1.30;99.90;;;;;;5016125;28;20382;-72
2024/01/17 06:12:25;;;;;;;8.85;3.05;;;-1.30;99.90;;;;;;5018678;28;20029;-72
2024/01/17 06:14:50;;;;;;;6.30;3.45;;;-1.30;99.90;;;;;;5018446;28;20040;-71
2024/01/17 06:17:16;;;;;;;9.70;3.33;;;-1.30;99.90;;;;;;5020630;28;20072;-72
2024/01/17 06:19:42;;;;;;;15.02;4.40;;;-1.30;99.90;;;;;;5020024;28;20049;-71
2024/01/17 06:22:08;;;;;;;6.72;2.85;;;-1.30;99.90;;;;;;5020777;28;20038;-72
2024/01/17 06:24:34;;;;;;;9.52;2.95;;;-1.30;99.90;;;;;;5018752;28;20033;-72
2024/01/17 06:27:00;;;;;;;7.13;3.50;;;-1.30;99.90;;;;;;5015752;28;20037;-72
2024/01/17 06:29:26;;;;;;;9.20;2.70;;;-1.30;99.90;;;;;;5014015;28;20594;-72
2024/01/17 06:31:55;;;;;;;13.48;3.25;;;-1.30;99.90;;;;;;5017430;28;20049;-72
2024/01/17 06:34:21;;;;;;;10.02;2.88;;;-1.30;99.90;;;;;;5018340;28;20434;-72
2024/01/17 06:36:47;;;;;;;9.63;3.20;;;-1.30;99.90;;;;;;5019523;28;20099;-71
2024/01/17 06:39:12;;;;;;;9.43;3.28;;;-1.30;99.90;;;;;;5020691;28;20037;-72
2024/01/17 06:41:38;;;;;;;8.00;3.20;;;-1.30;99.90;;;;;;5017513;28;20037;-75
2024/01/17 06:44:04;;;;;;;9.80;4.18;;;-1.30;99.90;;;;;;5016852;28;20048;-72
2024/01/17 06:46:30;;;;;;;7.53;3.40;;;-1.30;99.90;;;;;;5017335;28;20044;-72
2024/01/17 06:48:56;;;;;;;10.23;3.05;;;-1.30;99.90;;;;;;5015156;28;20051;-72
2024/01/17 06:51:21;;;;;;;7.22;3.83;;;-1.30;99.90;;;;;;5016686;28;20039;-72
2024/01/17 06:53:47;;;;;;;22.35;4.38;;;-1.30;99.90;;;;;;5017763;28;20037;-72
2024/01/17 06:56:13;;;;;;;8.07;3.17;;;-1.30;99.90;;;;;;5018568;28;20083;-72
2024/01/17 06:58:38;;;;;;;9.38;2.88;;;-1.30;99.90;;;;;;5017540;28;20091;-72
2024/01/17 07:01:04;;;;;;;10.88;3.55;;;-1.30;99.90;;;;;;5019329;28;20083;-72
2024/01/17 07:03:30;;;;;;;14.75;4.03;;;-1.20;99.90;;;;;;5014490;28;20021;-73
2024/01/17 07:05:55;;;;;;;13.02;3.75;;;-1.20;99.90;;;;;;5020700;28;20043;-72
2024/01/17 07:08:21;;;;;;;6.95;2.97;;;-1.30;99.90;;;;;;5024243;28;20029;-72
2024/01/17 07:10:46;;;;;;;7.82;2.42;;;-1.30;99.90;;;;;;5018491;28;20401;-72
2024/01/17 07:13:12;;;;;;;7.75;3.08;;;-1.30;99.90;;;;;;5022683;28;20038;-72
2024/01/17 07:15:38;;;;;;;8.25;3.58;;;-1.30;99.90;;;;;;5020242;28;20410;-72
2024/01/17 07:18:03;;;;;;;8.90;3.30;;;-1.30;99.90;;;;;;5023703;28;21080;-72
2024/01/17 07:20:29;;;;;;;6.07;2.72;;;-1.30;99.90;;;;;;5019405;28;20485;-73
2024/01/17 07:22:55;;;;;;;6.00;2.85;;;-1.20;99.90;;;;;;5014044;28;20438;-72
2024/01/17 07:25:21;;;;;;;8.65;3.17;;;-1.20;99.90;;;;;;5022833;28;20048;-71
2024/01/17 07:27:47;;;;;;;8.25;3.40;;;-1.20;99.90;;;;;;5021694;28;20091;-71
2024/01/17 07:30:15;;;;;;;12.00;3.08;;;-1.30;99.90;;;;;;5020269;28;20109;-72
2024/01/17 07:32:41;;;;;;;9.48;2.88;;;-1.20;99.90;;;;;;5019205;28;20064;-72
2024/01/17 07:35:07;;;;;;;10.05;3.47;;;-1.20;99.90;;;;;;5022103;28;20049;-72
2024/01/17 07:37:35;;;;;;;11.80;3.17;;;-1.20;99.90;;;;;;5019904;28;20030;-71
2024/01/17 07:40:01;;;;;;;7.63;3.63;;;-1.20;99.90;;;;;;5021316;28;20040;-71
2024/01/17 07:42:26;;;;;;;9.23;3.53;;;-1.20;99.90;;;;;;5015670;28;20037;-72
2024/01/17 07:44:52;;;;;;;7.43;3.25;;;-1.20;99.90;;;;;;5018813;28;20056;-72
2024/01/17 07:47:18;;;;;;;8.50;2.70;;;-1.20;99.90;;;;;;5019825;28;20049;-72
2024/01/17 07:49:45;;;;;;;8.40;2.65;;;-1.20;99.90;;;;;;5021314;28;20033;-71
2024/01/17 07:52:10;;;;;;;12.88;3.53;;;-1.20;99.90;;;;;;5020833;28;20042;-72
2024/01/17 07:54:36;;;;;;;10.35;3.55;;;-1.20;99.90;;;;;;5016954;28;20056;-72
2024/01/17 07:57:03;;;;;;;7.20;3.15;;;-1.20;99.90;;;;;;5017388;28;20025;-72
2024/01/17 07:59:28;;;;;;;7.32;2.58;;;-1.20;99.90;;;;;;5019424;28;20485;-73
2024/01/17 08:01:57;;;;;;;7.07;2.80;;;-1.20;99.90;;;;;;5017991;28;20045;-72
2024/01/17 08:04:23;;;;;;;15.23;4.15;;;-1.20;99.90;;;;;;5016859;28;20037;-71
2024/01/17 08:06:49;;;;;;;8.30;3.33;;;-1.20;99.90;;;;;;5020507;28;20564;-72
2024/01/17 08:09:21;;;;;;;15.55;3.60;;;-1.20;99.90;;;;;;5020098;28;20049;-72
2024/01/17 08:11:52;;;;;;;7.20;3.45;;;-1.10;99.90;;;;;;5015597;28;20033;-77
2024/01/17 08:14:18;;;;;;;9.30;3.83;;;-1.10;99.90;;;;;;5018913;28;20042;-72
2024/01/17 08:16:46;;;;;;;10.23;2.97;;;-1.20;99.90;;;;;;5020054;28;20071;-72
2024/01/17 08:19:11;;;;;;;11.60;4.28;;;-1.10;99.90;;;;;;5021275;28;20033;-72
2024/01/17 08:21:37;;;;;;;10.88;2.92;;;-1.10;99.90;;;;;;5017563;28;20806;-72
2024/01/17 08:24:03;;;;;;;11.63;4.18;;;-1.00;99.90;;;;;;5016095;28;20594;-72
2024/01/17 08:26:29;;;;;;;7.32;3.45;;;-1.00;99.90;;;;;;5018937;28;20037;-73
2024/01/17 08:28:56;;;;;;;8.93;3.55;;;-1.00;99.90;;;;;;5016502;28;20394;-72
2024/01/17 08:31:22;;;;;;;8.55;3.70;;;-1.00;99.90;;;;;;5021936;28;20029;-72
2024/01/17 08:33:49;;;;;;;7.55;3.60;;;-0.90;99.90;;;;;;5021460;28;20037;-72
2024/01/17 08:36:15;;;;;;;11.93;3.33;;;-0.90;99.90;;;;;;5020545;28;20044;-72
2024/01/17 08:38:41;;;;;;;10.50;3.17;;;-0.90;99.90;;;;;;5020845;28;20702;-72
2024/01/17 08:41:10;;;;;;;7.20;3.78;;;-0.90;99.90;;;;;;5023268;28;20049;-73
2024/01/17 08:43:35;;;;;;;7.45;3.42;;;-0.90;99.90;;;;;;5019256;28;20029;-73
2024/01/17 08:46:02;;;;;;;7.32;2.88;;;-0.80;99.90;;;;;;5019898;28;20852;-72
2024/01/17 08:48:28;;;;;;;7.60;3.13;;;-0.80;99.90;;;;;;5020811;28;20083;-73
2024/01/17 08:50:55;;;;;;;12.95;4.40;;;-0.80;99.90;;;;;;5021070;28;20032;-73
2024/01/17 08:53:21;;;;;;;7.95;3.47;;;-0.80;99.90;;;;;;5020429;28;20068;-72
2024/01/17 08:55:48;;;;;;;9.57;3.33;;;-0.80;99.90;;;;;;5022444;28;20033;-72
2024/01/17 08:58:14;;;;;;;7.25;3.60;;;-0.80;99.90;;;;;;5022606;28;20044;-72
2024/01/17 09:00:39;;;;;;;6.72;2.78;;;-0.70;99.90;;;;;;5020115;28;20030;-72
2024/01/17 09:03:05;;;;;;;8.90;3.50;;;-0.70;99.90;;;;;;5018376;28;20079;-73
2024/01/17 09:05:31;;;;;;;6.70;3.45;;;-0.70;99.90;;;;;;5019522;28;20435;-72
2024/01/17 09:07:58;;;;;;;6.68;3.83;;;-0.70;99.90;;;;;;5021004;28;20037;-71
2024/01/17 09:10:24;;;;;;;9.68;3.38;;;-0.70;99.90;;;;;;5020055;28;20132;-74
2024/01/17 09:12:50;;;;;;;8.00;3.13;;;-0.70;99.90;;;;;;5014367;28;20051;-71
2024/01/17 09:15:16;;;;;;;8.05;3.05;;;-0.60;99.90;;;;;;5016069;28;20575;-72
2024/01/17 09:17:42;;;;;;;9.07;4.22;;;-0.60;99.90;;;;;;5021616;28;20034;-72
2024/01/17 09:20:09;;;;;;;10.63;2.92;;;-0.60;99.90;;;;;;5017496;28;20844;-77
2024/01/17 09:22:35;;;;;;;5.88;2.97;;;-0.60;99.90;;;;;;5020230;28;20045;-72
2024/01/17 09:25:01;;;;;;;7.25;3.28;;;-0.60;99.90;;;;;;5017798;28;20030;-71
2024/01/17 09:27:27;;;;;;;10.00;4.00;;;-0.60;99.90;;;;;;5019372;28;20044;-72
2024/01/17 09:29:53;;;;;;;10.68;4.22;;;-0.50;99.90;;;;;;5021133;28;20033;-73
2024/01/17 09:32:18;;;;;;;10.00;3.58;;;-0.50;99.90;;;;;;5017755;28;20039;-73
2024/01/17 09:34:47;;;;;;;7.47;3.50;;;-0.50;99.90;;;;;;5020300;28;20412;-73
2024/01/17 09:37:14;;;;;;;10.35;4.03;;;-0.50;99.90;;;;;;5020791;28;20125;-72
2024/01/17 09:39:39;;;;;;;9.68;3.65;;;-0.40;99.90;;;;;;5017183;28;20131;-72
2024/01/17 09:42:06;;;;;;;6.68;3.08;;;-0.40;99.90;;;;;;5020311;28;20458;-73
2024/01/17 09:44:32;;;;;;;9.38;3.10;;;-0.40;99.90;;;;;;5020044;28;20033;-72
2024/01/17 09:47:01;;;;;;;9.05;3.33;;;-0.30;99.90;;;;;;5018742;28;20855;-72
2024/01/17 09:49:30;;;;;;;7.05;3.72;;;-0.30;99.90;;;;;;5014974;28;20048;-73
2024/01/17 09:51:56;;;;;;;9.93;3.53;;;-0.30;99.90;;;;;;5012434;28;20029;-72
2024/01/17 09:54:26;;;;;;;10.40;3.80;;;-0.30;99.90;;;;;;5015186;28;20037;-72
2024/01/17 09:56:55;;;;;;;18.60;3.83;;;-0.20;99.90;;;;;;5012438;28;20034;-72
2024/01/17 09:59:27;;;;;;;10.43;3.60;;;-0.20;99.90;;;;;;5011872;28;20079;-72
2024/01/17 10:01:55;;;;;;;7.75;3.80;;;-0.20;99.90;;;;;;5008543;28;20131;-72
2024/01/17 10:04:23;;;;;;;7.55;3.20;;;-0.10;99.90;;;;;;5019965;28;20042;-72
2024/01/17 10:06:49;;;;;;;7.45;3.55;;;-0.10;99.90;;;;;;5011378;28;20042;-72
2024/01/17 10:09:15;;;;;;;12.32;2.97;;;0.00;99.90;;;;;;5014948;28;20871;-73
2024/01/17 10:11:40;;;;;;;7.15;2.95;;;0.00;99.90;;;;;;5018284;28;20120;-73
2024/01/17 10:14:07;;;;;;;9.10;3.33;;;0.10;99.90;;;;;;5020613;28;20041;-71
2024/01/17 10:16:34;;;;;;;10.55;4.10;;;0.10;99.90;;;;;;5020020;28;20029;-71
2024/01/17 10:19:03;;;;;;;7.93;3.50;;;0.10;99.90;;;;;;5018905;28;20049;-72
2024/01/17 10:21:35;;;;;;;7.35;3.20;;;0.20;99.90;;;;;;5017191;28;20030;-72
2024/01/17 10:24:01;;;;;;;6.88;3.05;;;0.10;99.90;;;;;;5022908;28;20030;-72
2024/01/17 10:26:27;;;;;;;8.48;3.08;;;0.20;99.90;;;;;;5019636;28;20037;-72
2024/01/17 10:28:52;;;;;;;8.80;3.50;;;0.30;99.90;;;;;;5019553;28;20091;-72
2024/01/17 10:31:21;;;;;;;5.25;2.83;;;0.20;99.90;;;;;;5014273;28;20804;-70
2024/01/17 10:33:48;;;;;;;6.95;3.28;;;0.30;99.90;;;;;;5019510;28;20041;-72
2024/01/17 10:36:14;;;;;;;6.63;2.70;;;0.30;99.90;;;;;;5019442;28;20044;-72
2024/01/17 10:38:40;;;;;;;6.97;2.92;;;0.30;99.90;;;;;;5022128;28;20041;-72
2024/01/17 10:41:07;;;;;;;10.90;4.13;;;0.30;99.90;;;;;;5023050;28;20079;-73
2024/01/17 10:43:51;;;;;;;12.18;3.60;;;0.40;99.90;;;;;;5021793;28;20044;-72
2024/01/17 10:46:16;;;;;;;8.73;2.78;;;0.40;99.90;;;;;;5022046;28;20117;-72
2024/01/17 10:48:42;;;;;;;9.40;3.33;;;0.40;99.90;;;;;;5022840;28;20171;-72
2024/01/17 10:51:09;;;;;;;7.72;2.72;;;0.50;99.90;;;;;;5020280;28;20083;-72
2024/01/17 10:53:36;;;;;;;9.38;3.08;;;0.50;99.90;;;;;;5021056;28;20060;-72
2024/01/17 10:56:03;;;;;;;8.55;3.08;;;0.60;99.90;;;;;;5017839;28;20112;-72
2024/01/17 10:58:33;;;;;;;7.38;2.92;;;0.50;99.90;;;;;;5021017;28;20041;-73
2024/01/17 11:01:05;;;;;;;10.05;2.90;;;0.50;99.90;;;;;;5023282;28;20064;-72
2024/01/17 11:03:35;;;;;;;14.70;3.92;;;0.60;99.90;;;;;;5022687;28;20099;-72
2024/01/17 11:06:02;;;;;;;6.75;3.03;;;0.60;99.90;;;;;;5022048;28;20036;-72
2024/01/17 11:08:29;;;;;;;10.77;4.20;;;0.60;99.90;;;;;;5021592;28;20513;-72
2024/01/17 11:10:56;;;;;;;7.32;3.20;;;0.70;99.90;;;;;;5021984;28;20505;-71
2024/01/17 11:13:25;;;;;;;11.88;3.70;;;0.70;99.90;;;;;;5024429;28;20052;-72
2024/01/17 11:15:52;;;;;;;6.20;3.05;;;0.70;99.90;;;;;;5021906;28;20099;-71
2024/01/17 11:18:22;;;;;;;8.73;3.67;;;0.70;99.90;;;;;;5023196;28;20029;-71
2024/01/17 11:20:49;;;;;;;11.50;3.28;;;0.70;99.90;;;;;;5020110;28;20038;-72
2024/01/17 11:23:41;;;;;;;7.50;3.20;;;0.70;99.90;;;;;;5015174;28;20595;-71
2024/01/17 11:26:20;;;;;;;8.68;3.80;;;0.70;99.90;;;;;;5021432;28;20037;-73
2024/01/17 11:29:09;;;;;;;6.70;2.50;;;0.70;99.90;;;;;;5018737;28;20041;-72
2024/01/17 11:31:34;;;;;;;6.55;2.47;;;0.80;99.90;;;;;;5019322;28;20116;-72
2024/01/17 11:34:00;;;;;;;8.20;3.17;;;0.70;99.90;;;;;;5023068;28;20746;-72
2024/01/17 11:36:46;;;;;;;12.50;3.60;;;0.70;99.90;;;;;;5023628;28;20021;-73
2024/01/17 11:39:15;;;;;;;8.65;3.05;;;0.70;99.90;;;;;;5019711;28;20036;-72
2024/01/17 11:41:45;;;;;;;13.15;3.33;;;0.80;99.90;;;;;;5020836;28;20651;-72
2024/01/17 11:44:12;;;;;;;8.65;3.58;;;0.80;99.90;;;;;;5022280;28;20037;-71
2024/01/17 11:46:40;;;;;;;9.95;4.25;;;0.80;99.90;;;;;;5021133;28;20026;-73
2024/01/17 11:49:09;;;;;;;9.75;3.80;;;0.90;99.90;;;;;;5020754;28;20053;-72
2024/01/17 11:51:36;;;;;;;9.98;3.63;;;0.90;99.90;;;;;;5021291;28;20033;-73
2024/01/17 11:54:03;;;;;;;8.32;3.75;;;0.90;99.90;;;;;;5022816;28;20033;-73
2024/01/17 11:56:30;;;;;;;8.48;3.22;;;1.00;99.90;;;;;;5011913;28;20049;-74
2024/01/17 11:59:05;;;;;;;7.82;3.22;;;1.00;99.90;;;;;;5032163;28;20080;-71
2024/01/17 12:01:36;;;;;;;10.32;3.85;;;1.00;99.90;;;;;;5016608;28;20034;-70
2024/01/17 12:04:17;;;;;;;8.90;3.50;;;1.00;99.90;;;;;;5018453;28;20465;-72
2024/01/17 12:06:50;;;;;;;13.45;3.38;;;1.00;99.90;;;;;;5016836;28;20053;-72
2024/01/17 12:09:19;;;;;;;8.75;3.63;;;1.10;99.90;;;;;;5020690;28;20033;-71
2024/01/17 12:11:46;;;;;;;6.05;2.55;;;1.10;99.90;;;;;;5016978;28;20054;-71
2024/01/17 12:14:14;;;;;;;11.60;3.95;;;1.10;99.90;;;;;;5019321;28;20490;-72
2024/01/17 12:16:39;;;;;;;10.15;3.67;;;1.10;99.90;;;;;;5021293;28;20107;-71
2024/01/17 12:19:05;;;;;;;7.28;3.60;;;1.20;99.90;;;;;;5023161;28;20025;-70
2024/01/17 12:21:31;;;;;;;12.73;3.72;;;1.20;99.90;;;;;;5020028;28;20397;-73
2024/01/17 12:23:57;;;;;;;7.68;3.75;;;1.30;99.90;;;;;;5021811;28;20033;-73
2024/01/17 12:26:22;;;;;;;6.88;3.20;;;1.30;99.90;;;;;;5015887;28;20037;-72
2024/01/17 12:28:48;;;;;;;7.97;3.58;;;1.30;99.90;;;;;;5020519;28;20034;-73
2024/01/17 12:31:16;;;;;;;7.32;3.53;;;1.30;99.90;;;;;;5020687;28;20037;-71
2024/01/17 12:33:41;;;;;;;7.30;3.30;;;1.20;99.90;;;;;;5017164;28;20038;-71
2024/01/17 12:36:08;;;;;;;10.43;3.45;;;1.30;99.90;;;;;;5021828;28;20120;-73
2024/01/17 12:38:41;;;;;;;12.02;3.88;;;1.20;99.90;;;;;;5018247;28;20114;-71